Hassell, North Carolina
Current Conditions -  °F | °C
As of 12:35 PM on Thursday 30 Oct 2014 (Local Time) from KETC Reporting Station
Broken Clouds Broken Clouds  
Wind Chill: 66°   Ceiling: 3200
Heat Index: 66°   Visibility: 10mi
Dew Point: 50°   Wind: 8mph
Humidity: 56%   Direction: 40°NE
Pressure: 30.04"   Gusts: NA
Location:  35.91°N, 77.28°W
Report Text: KETC 301635Z AUTO 04007KT 10SM BKN032 BKN043 19/10 A3004 RMK AO2 T01910102
Loading
Personal Weather Stations






























Interactive Weather Map
Tropical Storm Tracking
New forecast layout! Learn more

10-Day Weather Forecast

Advertisements
Track Severe Weather on mobile